createdAt,value
2023-08-17T04:35:40.197Z,101613.25
2023-08-17T04:40:43.551Z,101599.75
2023-08-17T04:45:49.012Z,101600.31
2023-08-17T04:50:52.833Z,101597.66
2023-08-17T04:55:55.991Z,101582.28
2023-08-17T05:00:59.928Z,101585.03
2023-08-17T05:06:02.853Z,101576.84
2023-08-17T05:11:05.828Z,101588.66
2023-08-17T05:16:08.616Z,101585.72
2023-08-17T05:21:11.943Z,101590.78
2023-08-17T05:26:16.514Z,101595.78
2023-08-17T05:31:20.463Z,101590.97
2023-08-17T05:36:25.245Z,101597.63
2023-08-17T05:41:27.973Z,101599.13
2023-08-17T05:46:30.685Z,101589.03
2023-08-17T05:51:33.355Z,101611.75
2023-08-17T05:56:36.113Z,101609.59
2023-08-17T06:01:39.089Z,101607.38
2023-08-17T06:06:41.794Z,101599.91
2023-08-17T06:11:44.515Z,101589.78
2023-08-17T06:16:47.281Z,101579.56
2023-08-17T06:21:50.145Z,101584.91
2023-08-17T06:26:52.788Z,101585.28
2023-08-17T06:31:56.218Z,101590.06
2023-08-17T06:37:04.594Z,101595.16
2023-08-17T06:42:07.401Z,101610.47
2023-08-17T06:47:10.122Z,101620.66
2023-08-17T06:52:13.328Z,101633.78
2023-08-17T06:57:16.603Z,101641.50
2023-08-17T07:02:22.446Z,101650.16
2023-08-17T07:07:25.699Z,101657.59
2023-08-17T07:12:29.557Z,101672.00
2023-08-17T07:17:32.634Z,101664.69
2023-08-17T07:22:36.080Z,101657.19
2023-08-17T07:27:38.815Z,101647.53
2023-08-17T07:32:41.484Z,101647.28
2023-08-17T07:37:50.309Z,101655.56
2023-08-17T07:42:58.898Z,101654.81
2023-08-17T07:48:01.757Z,101662.56
2023-08-17T07:53:04.568Z,101664.13
2023-08-17T07:58:07.904Z,101656.63
2023-08-17T08:03:10.950Z,101671.25
2023-08-17T08:08:13.733Z,101652.78
2023-08-17T08:13:17.762Z,101650.66
2023-08-17T08:18:20.743Z,101644.84
2023-08-17T08:23:23.403Z,101648.94
2023-08-17T08:28:26.550Z,101646.00
2023-08-17T08:33:29.160Z,101647.06
2023-08-17T08:38:31.786Z,101639.13
2023-08-17T08:43:34.497Z,101628.47
2023-08-17T08:48:40.674Z,101621.53
2023-08-17T08:53:46.957Z,101626.06
2023-08-17T08:58:54.564Z,101610.47
2023-08-17T09:03:59.787Z,101612.72
2023-08-17T09:09:03.797Z,101605.19
2023-08-17T09:14:08.297Z,101603.53
2023-08-17T09:19:11.485Z,101606.38
2023-08-17T09:24:14.097Z,101607.47
2023-08-17T09:29:21.724Z,101609.16
2023-08-17T09:34:24.531Z,101597.47
2023-08-17T09:39:27.126Z,101603.41
2023-08-17T09:44:29.925Z,101612.81
2023-08-17T09:49:36.508Z,101602.50
2023-08-17T09:54:39.954Z,101577.53
2023-08-17T09:59:42.836Z,101570.75
2023-08-17T10:04:49.936Z,101558.25
2023-08-17T10:10:04.313Z,101552.81
2023-08-17T10:15:11.734Z,101554.72
2023-08-17T10:20:15.662Z,101564.97
2023-08-17T10:25:19.461Z,101563.66
2023-08-17T10:30:22.092Z,101556.91
2023-08-17T10:35:25.051Z,101563.44
2023-08-17T10:40:36.905Z,101564.06
2023-08-17T10:45:40.349Z,101559.56
2023-08-17T10:51:04.089Z,101542.72
2023-08-17T10:56:10.209Z,101521.75
2023-08-17T11:01:13.176Z,101512.28
2023-08-17T11:06:18.756Z,101510.38
2023-08-17T11:11:23.934Z,101510.59
2023-08-17T11:16:26.761Z,101507.03
2023-08-17T11:21:29.730Z,101509.31
2023-08-17T11:26:35.350Z,101515.50
2023-08-17T11:31:41.050Z,101509.31
2023-08-17T11:36:44.432Z,101517.72
2023-08-17T11:41:47.248Z,101507.66
2023-08-17T11:46:49.921Z,101505.38
2023-08-17T11:51:55.604Z,101513.34
2023-08-17T11:56:58.212Z,101517.31
2023-08-17T12:02:02.302Z,101517.84
2023-08-17T12:07:05.205Z,101522.97
2023-08-17T12:12:08.171Z,101513.81
2023-08-17T12:17:20.884Z,101516.19
2023-08-17T12:22:26.960Z,101521.50
2023-08-17T12:27:29.879Z,101513.31
2023-08-17T12:32:32.654Z,101499.38
2023-08-17T12:37:35.309Z,101511.00
2023-08-17T12:42:37.943Z,101502.31
2023-08-17T12:47:40.888Z,101503.78
2023-08-17T12:52:47.169Z,101491.47
2023-08-17T12:57:50.247Z,101496.88
2023-08-17T13:02:52.954Z,101497.72
2023-08-17T13:07:55.661Z,101489.28
2023-08-17T13:13:00.552Z,101478.44
2023-08-17T13:18:03.983Z,101477.66
2023-08-17T13:23:06.758Z,101475.44
2023-08-17T13:28:09.404Z,101471.88
2023-08-17T13:33:12.552Z,101468.75
2023-08-17T13:38:15.338Z,101461.91
2023-08-17T13:43:17.972Z,101464.44
2023-08-17T13:48:20.843Z,101460.72
2023-08-17T13:53:23.798Z,101462.53
2023-08-17T13:58:26.437Z,101455.84
2023-08-17T14:03:29.214Z,101456.84
2023-08-17T14:08:31.866Z,101444.72
2023-08-17T14:13:35.336Z,101445.69
2023-08-17T14:18:38.016Z,101435.56
2023-08-17T14:23:41.419Z,101430.09
2023-08-17T14:28:45.154Z,101431.44
2023-08-17T14:33:49.003Z,101423.34
2023-08-17T14:38:51.804Z,101424.84
2023-08-17T14:43:54.400Z,101415.81
2023-08-17T14:48:57.303Z,101417.41
2023-08-17T14:54:00.025Z,101407.38
2023-08-17T14:59:03.439Z,101406.59
2023-08-17T15:04:06.551Z,101394.00
2023-08-17T15:09:09.152Z,101395.81
2023-08-17T15:14:16.111Z,101393.50
2023-08-17T15:19:30.642Z,101396.47
2023-08-17T15:24:41.814Z,101393.91
2023-08-17T15:29:44.416Z,101390.03
2023-08-17T15:34:47.076Z,101390.19
2023-08-17T15:39:49.795Z,101401.97
2023-08-17T15:44:53.164Z,101397.59
2023-08-17T15:49:55.887Z,101416.47
2023-08-17T15:54:58.505Z,101412.34
2023-08-17T16:00:01.240Z,101408.00
2023-08-17T16:05:24.560Z,101406.22
2023-08-17T16:10:27.855Z,101406.88
2023-08-17T16:15:30.563Z,101414.81
2023-08-17T16:20:34.726Z,101406.00
2023-08-17T16:25:37.438Z,101406.19
2023-08-17T16:30:41.960Z,101401.84
2023-08-17T16:35:44.614Z,101407.22
2023-08-17T16:40:47.378Z,101408.97
2023-08-17T16:45:50.094Z,101404.59
2023-08-17T16:50:53.184Z,101412.38
2023-08-17T16:55:55.954Z,101408.78
2023-08-17T17:00:58.666Z,101401.56
2023-08-17T17:06:01.303Z,101405.75
2023-08-17T17:11:04.135Z,101408.06
2023-08-17T17:16:06.890Z,101400.72
2023-08-17T17:21:12.592Z,101401.25
2023-08-17T17:26:15.351Z,101401.84
2023-08-17T17:31:18.243Z,101405.13
2023-08-17T17:36:20.949Z,101397.84
2023-08-17T17:41:23.688Z,101403.63
2023-08-17T17:46:26.355Z,101410.38
2023-08-17T17:51:29.166Z,101412.75
2023-08-17T17:56:43.107Z,101411.59
2023-08-17T18:01:45.895Z,101419.19
2023-08-17T18:06:48.547Z,101429.50
2023-08-17T18:11:51.180Z,101421.34
2023-08-17T18:16:53.941Z,101427.25
2023-08-17T18:21:56.681Z,101434.78
2023-08-17T18:26:59.349Z,101432.78
2023-08-17T18:32:01.966Z,101428.19
2023-08-17T18:37:04.717Z,101448.03
2023-08-17T18:42:07.370Z,101455.59
2023-08-17T18:47:10.126Z,101458.81
2023-08-17T18:52:12.924Z,101449.78
2023-08-17T18:57:15.771Z,101453.09
2023-08-17T19:02:18.462Z,101459.09
2023-08-17T19:07:21.100Z,101470.09
2023-08-17T19:12:23.715Z,101464.78
2023-08-17T19:17:26.678Z,101468.09
2023-08-17T19:22:29.929Z,101468.72
2023-08-17T19:27:32.586Z,101470.28
2023-08-17T19:32:35.295Z,101481.56
2023-08-17T19:37:38.729Z,101457.13
2023-08-17T19:42:41.348Z,101456.19
2023-08-17T19:47:44.200Z,101459.41
2023-08-17T19:52:47.028Z,101439.06
2023-08-17T19:57:49.672Z,101432.53
2023-08-17T20:02:55.971Z,101425.28
2023-08-17T20:07:58.747Z,101431.94
2023-08-17T20:13:01.436Z,101418.72
2023-08-17T20:18:04.819Z,101414.16
2023-08-17T20:23:07.540Z,101421.69
2023-08-17T20:28:10.160Z,101414.53
2023-08-17T20:33:13.065Z,101405.63
2023-08-17T20:38:15.695Z,101404.50
